Pagrindinis puslapis
METAR-TAF:

METAR-TAF

Oro uostai :

Chargas, Iranas

platuma: 29-15-34N, ilguma: 50-19-24E, Aukštis: 5 m

Dabartinis oras

Ataskaita buvo paskelbta 22 minutes, ne 11:00 UTC
Vėjas 6 kt iš Pietvakarių
Temperatūra 34°C
Drėgmė 67%
Slėgis 1013 hPa
Matomumas: 8000 m

METAR: OIBQ 141100Z 23006KT 8000 NSC 34/27 Q1013

Laikas: 14:52 (11:22 UTC)


TAF: trūkstamas

Orai ataskaitas ir orų prognozės (METAR, TAF).

turimą stotys yra geltonos ir raudonos taškus žemėlapyje.

Perkelti pele per norėdami pamatyti stoties vardą.

Tada spustelėkite, norėdami matyti oro stebėjimo ir prognozės.

Norėdami pakeisti žemėlapį: spustelėkite ant žalios mygtukų su juodo kryžiaus žemyn,; žalią mygtuką su brūkšneliu, jei norite nutolinti; arba žalių rodyklių gretimoms žemėlapius.


METAR-TAF: